Time;durP1;ratioP1;P1;durP2;ratioP2;P2;SDS_P1;SDS_P2;PMS_P1;PMS_P2;Temp;Humidity;BMP_temperature;BMP_pressure;BME280_temperature;BME280_humidity;BME280_pressure;Samples;Min_cycle;Max_cycle;Signal;HPM_P1;HPM_P2
2023/06/02 00:01:19;;;;;;;17.20;8.27;;;461.20;2380.80;;;;;;5069301;28;20036;-82
2023/06/02 00:03:45;;;;;;;12.48;7.82;;;461.20;2380.80;;;;;;5069100;28;20025;-83
2023/06/02 00:06:18;;;;;;;12.07;7.32;;;461.10;2380.80;;;;;;5068782;28;20055;-85
2023/06/02 00:08:44;;;;;;;10.55;7.97;;;461.00;2380.80;;;;;;5069187;28;20357;-82
2023/06/02 00:11:11;;;;;;;13.25;9.45;;;461.20;2380.80;;;;;;5053413;28;20025;-82
2023/06/02 00:13:37;;;;;;;17.15;10.75;;;461.20;2380.80;;;;;;5069198;28;20476;-83
2023/06/02 00:16:04;;;;;;;17.77;10.63;;;461.10;2380.80;;;;;;5052350;28;20110;-83
2023/06/02 00:18:33;;;;;;;14.50;11.75;;;461.10;2380.80;;;;;;5052278;28;20025;-81
2023/06/02 00:21:00;;;;;;;15.25;10.90;;;461.20;2380.80;;;;;;5052038;28;20060;-81
2023/06/02 00:23:28;;;;;;;11.73;9.32;;;461.10;2380.80;;;;;;5051982;28;20021;-81
2023/06/02 00:25:55;;;;;;;10.20;7.72;;;461.10;2380.80;;;;;;5068367;28;20362;-84
2023/06/02 00:28:21;;;;;;;14.27;7.40;;;461.10;2380.80;;;;;;5069100;28;20385;-83
2023/06/02 00:30:47;;;;;;;11.90;7.45;;;461.10;2380.80;;;;;;5068677;28;20028;-82
2023/06/02 00:33:13;;;;;;;9.07;7.13;;;461.10;2380.80;;;;;;5069124;28;20036;-83
2023/06/02 00:35:39;;;;;;;9.65;6.63;;;461.10;2380.80;;;;;;5053314;28;20025;-83
2023/06/02 00:38:05;;;;;;;13.05;6.55;;;461.00;2380.80;;;;;;5068676;28;20479;-82
2023/06/02 00:40:32;;;;;;;11.57;7.03;;;461.00;2380.80;;;;;;5053068;28;20060;-82
2023/06/02 00:43:01;;;;;;;8.95;6.97;;;461.10;2380.80;;;;;;5068831;28;20029;-82
2023/06/02 00:45:27;;;;;;;9.18;7.18;;;461.10;2380.80;;;;;;5068511;28;20025;-82
2023/06/02 00:47:53;;;;;;;13.00;8.27;;;460.90;2380.80;;;;;;5053214;28;20048;-81
2023/06/02 00:50:19;;;;;;;13.43;7.65;;;436.10;2355.20;;;;;;5068806;28;20457;-81
2023/06/02 00:52:48;;;;;;;10.15;7.40;;;460.90;2380.80;;;;;;5068399;28;20039;-83
2023/06/02 00:55:14;;;;;;;10.10;6.93;;;460.90;2380.80;;;;;;5068842;28;20032;-82
2023/06/02 00:57:40;;;;;;;8.82;7.63;;;460.90;2380.80;;;;;;5068681;28;20021;-82
2023/06/02 01:00:09;;;;;;;8.52;7.25;;;460.80;2380.80;;;;;;5068451;28;20380;-82
2023/06/02 01:02:35;;;;;;;12.70;7.95;;;436.00;2355.20;;;;;;5068850;28;20029;-82
2023/06/02 01:05:12;;;;;;;9.13;7.50;;;460.90;2380.80;;;;;;5056237;28;20128;-81
2023/06/02 01:07:44;;;;;;;15.43;9.07;;;460.90;2380.80;;;;;;5056951;28;20108;-82
2023/06/02 01:10:13;;;;;;;14.50;8.20;;;460.90;2380.80;;;;;;5072376;28;20032;-82
2023/06/02 01:12:39;;;;;;;14.82;9.23;;;460.90;2380.80;;;;;;5071773;28;20036;-82
2023/06/02 01:15:06;;;;;;;12.52;9.15;;;460.90;2380.80;;;;;;5072306;28;20029;-81
2023/06/02 01:17:35;;;;;;;13.48;8.93;;;460.80;2380.80;;;;;;5072246;28;20119;-82
2023/06/02 01:20:04;;;;;;;10.52;9.30;;;460.80;2380.80;;;;;;5071933;28;20033;-83
2023/06/02 01:22:40;;;;;;;11.73;10.20;;;460.90;2380.80;;;;;;5072186;28;20053;-83
2023/06/02 01:25:20;;;;;;;13.88;9.55;;;460.80;2380.80;;;;;;5055299;28;20112;-81
2023/06/02 01:27:46;;;;;;;11.43;10.05;;;460.90;2380.80;;;;;;5071719;28;20029;-84
2023/06/02 01:30:13;;;;;;;12.07;9.48;;;460.80;2380.80;;;;;;5056416;28;20035;-82
2023/06/02 01:33:01;;;;;;;14.57;9.82;;;460.80;2380.80;;;;;;5072111;28;20029;-83
2023/06/02 01:35:31;;;;;;;12.45;8.80;;;460.90;2380.80;;;;;;5047151;28;20037;-82
2023/06/02 01:37:59;;;;;;;14.43;9.65;;;460.90;2380.80;;;;;;5071864;28;20032;-83
2023/06/02 01:40:27;;;;;;;12.90;9.18;;;460.90;2380.80;;;;;;5055902;28;20075;-81
2023/06/02 01:42:55;;;;;;;13.40;9.05;;;460.90;2380.80;;;;;;5056221;28;20106;-82
2023/06/02 01:45:23;;;;;;;12.52;8.85;;;460.90;2380.80;;;;;;5056128;28;20029;-81
2023/06/02 01:47:49;;;;;;;12.05;8.52;;;460.90;2380.80;;;;;;5071199;28;20025;-84
2023/06/02 01:50:15;;;;;;;13.73;8.77;;;460.90;2380.80;;;;;;5071453;28;20039;-83
2023/06/02 01:52:40;;;;;;;11.43;9.30;;;460.90;2380.80;;;;;;5071411;28;20052;-83
2023/06/02 01:55:06;;;;;;;12.20;8.85;;;460.90;2380.80;;;;;;5071198;28;20021;-83
2023/06/02 01:57:33;;;;;;;15.20;8.90;;;460.90;2380.80;;;;;;5071377;28;20032;-82
2023/06/02 01:59:59;;;;;;;11.88;9.65;;;460.90;2380.80;;;;;;5056095;28;20053;-82
2023/06/02 02:02:25;;;;;;;11.38;10.05;;;460.80;2380.80;;;;;;5055882;28;20052;-82
2023/06/02 02:04:51;;;;;;;16.33;11.15;;;436.10;2355.20;;;;;;5054367;28;20438;-81
2023/06/02 02:07:19;;;;;;;14.77;10.23;;;436.10;2355.20;;;;;;5054531;28;20423;-83
2023/06/02 02:09:46;;;;;;;16.67;10.40;;;436.10;2355.20;;;;;;5054041;28;20552;-83
2023/06/02 02:12:12;;;;;;;15.48;10.32;;;460.80;2380.80;;;;;;5054418;28;20075;-83
2023/06/02 02:14:38;;;;;;;16.20;12.38;;;460.80;2380.80;;;;;;5054331;28;20033;-82
2023/06/02 02:17:04;;;;;;;15.35;11.75;;;460.90;2380.80;;;;;;5054121;28;20495;-82
2023/06/02 02:19:31;;;;;;;15.30;11.32;;;460.90;2380.80;;;;;;5054292;28;20060;-82
2023/06/02 02:22:00;;;;;;;18.42;11.02;;;460.90;2380.80;;;;;;5054385;28;20476;-82
2023/06/02 02:24:25;;;;;;;19.90;11.57;;;460.90;2380.80;;;;;;5055277;28;20061;-81
2023/06/02 02:26:51;;;;;;;19.10;11.82;;;460.80;2380.80;;;;;;5054234;28;20056;-83
2023/06/02 02:29:17;;;;;;;19.30;9.35;;;436.10;2355.20;;;;;;5055527;28;20025;-82
2023/06/02 02:31:43;;;;;;;13.77;9.32;;;436.00;2355.20;;;;;;5070285;28;20025;-83
2023/06/02 02:34:08;;;;;;;12.45;9.20;;;435.90;2355.20;;;;;;5070660;28;20040;-82
2023/06/02 02:36:34;;;;;;;17.25;9.95;;;436.10;2355.20;;;;;;5054951;28;20376;-83
2023/06/02 02:39:00;;;;;;;11.80;10.10;;;436.10;2355.20;;;;;;5068676;28;20488;-83
2023/06/02 02:41:26;;;;;;;14.90;10.13;;;436.00;2355.20;;;;;;5053496;28;20036;-83
2023/06/02 02:43:52;;;;;;;10.65;9.25;;;436.00;2150.40;;;;;;5053692;28;20021;-82
2023/06/02 02:46:18;;;;;;;15.68;10.43;;;436.10;2355.20;;;;;;5069179;28;20047;-82
2023/06/02 02:48:43;;;;;;;12.32;10.00;;;436.10;2355.20;;;;;;5051068;28;20025;-82
2023/06/02 02:51:09;;;;;;;12.70;9.90;;;436.10;2355.20;;;;;;5052833;28;20033;-83
2023/06/02 02:53:35;;;;;;;15.30;11.10;;;436.00;2227.20;;;;;;5069944;28;20064;-83
2023/06/02 02:56:02;;;;;;;15.10;11.43;;;436.00;2355.20;;;;;;5053466;28;20043;-82
2023/06/02 02:58:28;;;;;;;14.20;11.60;;;436.10;2355.20;;;;;;5054482;28;20021;-83
2023/06/02 03:00:55;;;;;;;14.82;11.55;;;436.10;2355.20;;;;;;5054956;28;20033;-81
2023/06/02 03:03:21;;;;;;;17.02;12.80;;;436.00;2355.20;;;;;;5053364;28;20128;-83
2023/06/02 03:05:47;;;;;;;16.67;10.93;;;436.00;2355.20;;;;;;5054462;28;20485;-85
2023/06/02 03:08:13;;;;;;;17.42;12.93;;;436.00;2355.20;;;;;;5053532;28;20488;-82
2023/06/02 03:10:42;;;;;;;18.63;13.30;;;436.00;2355.20;;;;;;5053291;28;20090;-83
2023/06/02 03:13:07;;;;;;;19.80;14.32;;;435.90;1996.80;;;;;;5053193;28;20033;-83
2023/06/02 03:15:34;;;;;;;18.30;12.73;;;435.80;2355.20;;;;;;5053028;28;20512;-83
2023/06/02 03:18:02;;;;;;;16.30;12.70;;;435.90;2355.20;;;;;;5053308;28;20029;-83
2023/06/02 03:20:29;;;;;;;13.50;11.75;;;436.00;2355.20;;;;;;5054147;28;20029;-82
2023/06/02 03:22:55;;;;;;;17.58;11.85;;;436.00;2355.20;;;;;;5052785;28;20033;-82
2023/06/02 03:25:22;;;;;;;17.65;11.57;;;436.10;2355.20;;;;;;5051612;28;20453;-81
2023/06/02 03:27:50;;;;;;;15.60;12.02;;;436.00;2355.20;;;;;;5052449;28;20119;-82
2023/06/02 03:30:17;;;;;;;21.58;13.43;;;436.00;2355.20;;;;;;5053983;28;20536;-82
2023/06/02 03:32:43;;;;;;;16.17;12.63;;;435.90;2355.20;;;;;;5052736;28;20495;-83
2023/06/02 03:35:09;;;;;;;15.95;12.43;;;435.80;2355.20;;;;;;5053027;28;20029;-84
2023/06/02 03:37:34;;;;;;;18.23;11.55;;;435.80;2355.20;;;;;;5064009;28;20080;-83
2023/06/02 03:40:00;;;;;;;20.10;10.95;;;435.90;2355.20;;;;;;5077791;28;20013;-80
2023/06/02 03:42:26;;;;;;;18.33;11.13;;;435.90;2355.20;;;;;;5056008;28;20046;-81
2023/06/02 03:44:52;;;;;;;17.95;11.30;;;435.90;2355.20;;;;;;5053063;28;20028;-82
2023/06/02 03:47:18;;;;;;;21.88;11.38;;;435.80;2278.40;;;;;;5052411;28;20473;-82
2023/06/02 03:49:43;;;;;;;15.32;11.07;;;436.00;2355.20;;;;;;5052834;28;20067;-81
2023/06/02 03:52:09;;;;;;;18.65;11.15;;;435.90;2355.20;;;;;;5054173;28;20380;-81
2023/06/02 03:54:35;;;;;;;13.52;10.85;;;435.90;2355.20;;;;;;5052438;28;20024;-83
2023/06/02 03:57:01;;;;;;;17.60;11.60;;;435.90;2355.20;;;;;;5054132;28;20025;-83
2023/06/02 03:59:26;;;;;;;40.90;13.20;;;435.90;2355.20;;;;;;5052743;28;20036;-85
2023/06/02 04:01:52;;;;;;;18.15;12.55;;;436.00;2355.20;;;;;;5052404;28;20033;-82
2023/06/02 04:04:18;;;;;;;25.00;13.55;;;436.00;2355.20;;;;;;5053295;28;20096;-83
2023/06/02 04:06:44;;;;;;;17.85;12.40;;;436.00;2355.20;;;;;;5052634;28;20033;-82
2023/06/02 04:09:13;;;;;;;21.55;13.63;;;435.90;2355.20;;;;;;5052223;28;20111;-83
2023/06/02 04:11:40;;;;;;;23.55;14.05;;;436.00;2355.20;;;;;;5051992;28;20033;-83
2023/06/02 04:14:06;;;;;;;19.45;13.82;;;435.80;2355.20;;;;;;5052497;28;20061;-83
2023/06/02 04:16:32;;;;;;;20.27;13.77;;;;;;;;;;5052318;28;20366;-83
2023/06/02 04:18:59;;;;;;;23.75;14.57;;;;;;;;;;5052413;28;20021;-83
2023/06/02 04:21:25;;;;;;;22.73;14.75;;;;;;;;;;5052193;28;20098;-84
2023/06/02 04:23:51;;;;;;;26.13;14.05;;;;;;;;;;5052361;28;20036;-82
2023/06/02 04:26:17;;;;;;;25.13;14.90;;;;;;;;;;5052551;28;20028;-82
2023/06/02 04:28:43;;;;;;;20.23;14.32;;;;;;;;;;5053466;28;20079;-83
2023/06/02 04:31:11;;;;;;;25.45;15.07;;;;;;;;;;5052308;28;20060;-84
2023/06/02 04:33:37;;;;;;;21.08;13.43;;;;;;;;;;5052290;28;20021;-82
2023/06/02 04:36:03;;;;;;;20.95;14.90;;;;;;;;;;5052317;28;20089;-83
2023/06/02 04:38:31;;;;;;;20.30;14.18;;;;;;;;;;5052938;28;20082;-81
2023/06/02 04:40:57;;;;;;;21.08;13.57;;;;;;;;;;5056347;28;20028;-83
2023/06/02 04:43:23;;;;;;;21.67;12.75;;;;;;;;;;5055952;28;20025;-82
2023/06/02 04:45:50;;;;;;;24.10;13.18;;;;;;;;;;5056166;28;20116;-83
2023/06/02 04:48:16;;;;;;;23.65;14.13;;;;;;;;;;5057144;28;20017;-83
2023/06/02 04:50:42;;;;;;;21.35;13.63;;;;;;;;;;5055687;28;20036;-83
2023/06/02 04:53:08;;;;;;;20.02;12.68;;;;;;;;;;5055970;28;20029;-84
2023/06/02 04:55:34;;;;;;;18.17;12.82;;;;;;;;;;5056052;28;20029;-83
2023/06/02 04:58:00;;;;;;;23.33;12.25;;;;;;;;;;5055545;28;20469;-82
2023/06/02 05:00:28;;;;;;;19.23;13.00;;;;;;;;;;5055993;28;20029;-83
2023/06/02 05:02:54;;;;;;;22.85;13.95;;;;;;;;;;5055842;28;20032;-82
2023/06/02 05:05:20;;;;;;;21.95;13.05;;;;;;;;;;5056570;28;20056;-82
2023/06/02 05:07:47;;;;;;;22.05;13.93;;;;;;;;;;5055628;28;20029;-84
2023/06/02 05:10:13;;;;;;;23.65;12.52;;;;;;;;;;5055489;28;20056;-83
2023/06/02 05:12:41;;;;;;;24.85;13.60;;;;;;;;;;5055389;28;20416;-82
2023/06/02 05:15:08;;;;;;;23.13;13.43;;;;;;;;;;5055595;28;20082;-82
2023/06/02 05:17:34;;;;;;;19.63;12.55;;;;;;;;;;5055484;28;20020;-84
2023/06/02 05:20:00;;;;;;;19.17;11.75;;;;;;;;;;5055549;28;20477;-83
2023/06/02 05:22:27;;;;;;;17.10;12.45;;;;;;;;;;5055052;28;20051;-83
2023/06/02 05:24:54;;;;;;;13.57;11.52;;;;;;;;;;5055207;28;20021;-81
2023/06/02 05:27:20;;;;;;;17.70;12.57;;;;;;;;;;5055305;28;20024;-83
2023/06/02 05:29:46;;;;;;;18.60;12.95;;;;;;;;;;5055264;28;20427;-83
2023/06/02 05:32:12;;;;;;;20.77;14.57;;;;;;;;;;5054982;28;20021;-84
2023/06/02 05:34:39;;;;;;;20.88;14.23;;;;;;;;;;5055734;28;20082;-84
2023/06/02 05:37:05;;;;;;;26.60;15.15;;;;;;;;;;5055294;28;20033;-82
2023/06/02 05:39:31;;;;;;;24.55;15.02;;;;;;;;;;5054942;28;20102;-83
2023/06/02 05:41:57;;;;;;;28.67;15.02;;;;;;;;;;5055075;28;20036;-83
2023/06/02 05:44:23;;;;;;;23.77;15.55;;;;;;;;;;5054959;28;20047;-81
2023/06/02 05:46:50;;;;;;;29.67;15.77;;;;;;;;;;5055977;28;20028;-83
2023/06/02 05:49:16;;;;;;;29.88;14.52;;;;;;;;;;5054371;28;20028;-82
2023/06/02 05:51:42;;;;;;;23.70;13.40;;;;;;;;;;5054896;28;20062;-82
2023/06/02 05:54:09;;;;;;;24.00;15.00;;;;;;;;;;5054578;28;20415;-83
2023/06/02 05:56:35;;;;;;;25.55;15.73;;;;;;;;;;5056172;28;20025;-81
2023/06/02 05:59:01;;;;;;;25.50;16.83;;;;;;;;;;5054698;28;20035;-82
2023/06/02 06:01:28;;;;;;;27.17;15.85;;;;;;;;;;5054344;28;20033;-81
2023/06/02 06:03:54;;;;;;;21.88;15.60;;;;;;;;;;5054382;28;20032;-79
2023/06/02 06:06:20;;;;;;;20.55;15.05;;;;;;;;;;5054455;28;20053;-80
2023/06/02 06:08:46;;;;;;;22.50;14.35;;;;;;;;;;5054297;28;20021;-81
2023/06/02 06:11:13;;;;;;;20.20;15.38;;;;;;;;;;5054392;28;20472;-82
2023/06/02 06:13:39;;;;;;;24.63;15.55;;;;;;;;;;5054049;28;20032;-82
2023/06/02 06:16:06;;;;;;;19.50;15.15;;;;;;;;;;5054546;28;20107;-82
2023/06/02 06:18:32;;;;;;;21.17;15.10;;;;;;;;;;5054260;28;20029;-82
2023/06/02 06:20:58;;;;;;;21.67;14.50;;;;;;;;;;5054113;28;20095;-83
2023/06/02 06:23:25;;;;;;;18.00;13.40;;;;;;;;;;5054157;28;20473;-83
2023/06/02 06:25:51;;;;;;;18.98;13.52;;;;;;;;;;5033049;28;20076;-85
2023/06/02 06:28:17;;;;;;;14.88;12.13;;;;;;;;;;5035193;28;20022;-82
2023/06/02 06:30:45;;;;;;;16.85;13.48;;;;;;;;;;5035059;28;20108;-82
2023/06/02 06:33:11;;;;;;;17.75;12.43;;;;;;;;;;5035520;28;20018;-82
2023/06/02 06:35:37;;;;;;;18.30;12.32;;;;;;;;;;5034027;28;20044;-83
2023/06/02 06:38:04;;;;;;;17.90;11.90;;;;;;;;;;5035165;28;20072;-82
2023/06/02 06:40:31;;;;;;;17.75;13.43;;;;;;;;;;5033989;28;20124;-83
2023/06/02 06:42:57;;;;;;;17.65;11.60;;;;;;;;;;5033839;28;20025;-82
2023/06/02 06:45:24;;;;;;;18.73;11.23;;;;;;;;;;5035072;28;20030;-81
2023/06/02 06:47:50;;;;;;;18.38;10.80;;;487.20;2380.80;;;;;;5033933;28;20037;-82
2023/06/02 06:50:16;;;;;;;17.25;11.32;;;487.00;2380.80;;;;;;5038168;28;20037;-83
2023/06/02 06:52:42;;;;;;;14.63;10.57;;;487.00;2380.80;;;;;;5053724;28;20025;-82
2023/06/02 06:55:08;;;;;;;18.65;10.27;;;487.10;2380.80;;;;;;5052041;28;20024;-83
2023/06/02 06:57:34;;;;;;;12.25;9.55;;;487.30;2380.80;;;;;;5053368;28;20538;-82
2023/06/02 07:00:00;;;;;;;15.15;10.30;;;512.00;2380.80;;;;;;5053568;28;20056;-82
2023/06/02 07:02:26;;;;;;;18.17;11.52;;;512.20;2380.80;;;;;;5051239;28;20029;-84
2023/06/02 07:04:51;;;;;;;13.85;10.82;;;512.30;2380.80;;;;;;5054168;28;20080;-83
2023/06/02 07:07:17;;;;;;;16.13;10.35;;;512.30;2380.80;;;;;;5053684;28;20029;-82
2023/06/02 07:09:43;;;;;;;14.40;9.63;;;512.30;2380.80;;;;;;5053344;28;20380;-83
2023/06/02 07:12:09;;;;;;;12.95;10.73;;;512.30;2380.80;;;;;;5053816;28;20032;-82
2023/06/02 07:14:35;;;;;;;15.32;10.18;;;512.50;2380.80;;;;;;5054324;28;20029;-83
2023/06/02 07:17:01;;;;;;;15.40;11.73;;;512.50;2380.80;;;;;;5053274;28;20529;-84
2023/06/02 07:19:26;;;;;;;15.70;11.07;;;512.60;2380.80;;;;;;5053496;28;20025;-82
2023/06/02 07:21:52;;;;;;;17.48;10.15;;;512.50;2380.80;;;;;;5054438;28;20040;-82
2023/06/02 07:24:18;;;;;;;15.63;9.52;;;512.50;2380.80;;;;;;5054348;28;20457;-83
2023/06/02 07:26:44;;;;;;;13.10;9.90;;;512.50;2380.80;;;;;;5053287;28;20052;-82
2023/06/02 07:29:10;;;;;;;13.23;9.43;;;512.60;2380.80;;;;;;5065810;28;20009;-83
2023/06/02 07:31:36;;;;;;;13.23;9.27;;;512.10;2380.80;;;;;;5068983;28;20041;-82
2023/06/02 07:34:02;;;;;;;12.60;8.50;;;512.80;2380.80;;;;;;5053320;28;20028;-83
2023/06/02 07:36:28;;;;;;;18.20;9.13;;;512.60;2380.80;;;;;;5054108;28;20036;-83
2023/06/02 07:38:54;;;;;;;15.57;8.77;;;512.60;2380.80;;;;;;5053990;28;20021;-83
2023/06/02 07:41:20;;;;;;;10.50;9.20;;;512.60;2380.80;;;;;;5052783;28;20028;-83
2023/06/02 07:43:46;;;;;;;12.65;9.95;;;512.60;2380.80;;;;;;5053022;28;20021;-82
2023/06/02 07:46:12;;;;;;;14.30;10.90;;;512.70;2380.80;;;;;;5051288;28;20071;-82
2023/06/02 07:48:38;;;;;;;14.88;11.40;;;512.80;2380.80;;;;;;5053622;28;20033;-81
2023/06/02 07:51:04;;;;;;;12.65;10.18;;;;;;;;;;5052631;28;20045;-81
2023/06/02 07:53:31;;;;;;;14.32;11.43;;;;;;;;;;5052508;28;20052;-81
2023/06/02 07:55:57;;;;;;;14.95;10.95;;;;;;;;;;5053923;28;20100;-82
2023/06/02 07:58:23;;;;;;;15.02;10.27;;;;;;;;;;5052487;28;20372;-81
2023/06/02 08:00:49;;;;;;;15.70;12.00;;;;;;;;;;5052579;28;20546;-81
2023/06/02 08:03:15;;;;;;;16.85;12.00;;;538.00;2406.40;;;;;;5039833;28;20037;-83
2023/06/02 08:05:42;;;;;;;15.23;12.60;;;512.70;2380.80;;;;;;5032419;28;20187;-80
2023/06/02 08:08:09;;;;;;;14.05;11.15;;;537.90;2406.40;;;;;;5033959;28;20021;-79
2023/06/02 08:10:35;;;;;;;16.63;12.30;;;537.90;2406.40;;;;;;5032578;28;20045;-80
2023/06/02 08:13:01;;;;;;;15.00;10.40;;;538.00;2406.40;;;;;;5035730;28;20351;-79
2023/06/02 08:15:27;;;;;;;15.10;11.25;;;537.90;2406.40;;;;;;5039592;28;20532;-80
2023/06/02 08:17:52;;;;;;;17.85;11.63;;;538.30;2406.40;;;;;;5039282;28;20032;-79
2023/06/02 08:20:18;;;;;;;16.73;11.63;;;563.20;2432.00;;;;;;5039317;28;20037;-83
2023/06/02 08:22:47;;;;;;;15.32;11.25;;;563.40;2432.00;;;;;;5041442;28;20026;-81
2023/06/02 08:25:15;;;;;;;14.00;11.35;;;563.50;2432.00;;;;;;5039342;28;20354;-80
2023/06/02 08:27:44;;;;;;;17.05;11.73;;;563.50;2432.00;;;;;;5038816;28;20053;-79
2023/06/02 08:30:12;;;;;;;17.65;11.48;;;563.50;2432.00;;;;;;5038996;28;20120;-79
2023/06/02 08:32:37;;;;;;;22.10;14.23;;;563.60;2432.00;;;;;;5038918;28;20026;-80
2023/06/02 08:35:04;;;;;;;16.77;11.20;;;563.90;2432.00;;;;;;5038703;28;20025;-79
2023/06/02 08:37:31;;;;;;;14.57;10.70;;;564.00;2432.00;;;;;;5039837;28;20108;-79
2023/06/02 08:39:58;;;;;;;13.82;9.63;;;564.00;2432.00;;;;;;5038470;28;20040;-80
2023/06/02 08:42:26;;;;;;;14.85;10.20;;;563.80;2432.00;;;;;;5038449;28;20071;-79
2023/06/02 08:44:52;;;;;;;15.23;9.40;;;564.00;2432.00;;;;;;5040056;28;20031;-81
2023/06/02 08:47:24;;;;;;;14.45;10.73;;;563.90;2432.00;;;;;;5039829;28;20449;-77
2023/06/02 08:49:50;;;;;;;13.27;9.00;;;564.00;2432.00;;;;;;5038647;28;20065;-78
2023/06/02 08:52:22;;;;;;;13.52;9.90;;;588.80;2432.00;;;;;;5038782;28;20032;-79
2023/06/02 08:54:51;;;;;;;12.93;10.00;;;588.90;2432.00;;;;;;5039288;28;20122;-79
2023/06/02 08:57:22;;;;;;;14.75;10.13;;;589.00;2432.00;;;;;;5038469;28;20033;-81
2023/06/02 08:59:49;;;;;;;11.38;9.35;;;589.60;2432.00;;;;;;5038614;28;20022;-81
2023/06/02 09:02:15;;;;;;;13.18;8.57;;;614.40;2432.00;;;;;;5039510;28;20088;-81
2023/06/02 09:04:42;;;;;;;18.23;8.85;;;614.50;2432.00;;;;;;5038259;28;20054;-81
2023/06/02 09:07:16;;;;;;;14.65;10.38;;;614.70;2432.00;;;;;;5038626;28;20021;-82
2023/06/02 09:09:53;;;;;;;12.40;10.05;;;614.40;2432.00;;;;;;5038201;28;20087;-81
2023/06/02 09:12:20;;;;;;;11.75;9.57;;;614.60;2432.00;;;;;;5038493;28;20057;-81
2023/06/02 09:14:48;;;;;;;14.80;9.75;;;614.80;2432.00;;;;;;5039606;28;20029;-83
2023/06/02 09:17:32;;;;;;;15.82;9.35;;;615.00;2432.00;;;;;;5039404;28;20079;-84
2023/06/02 09:19:59;;;;;;;13.13;8.63;;;;;;;;;;5038336;28;20033;-81
2023/06/02 09:22:25;;;;;;;8.60;7.47;;;;;;;;;;5038084;28;20116;-81
2023/06/02 09:24:53;;;;;;;10.68;7.65;;;;;;;;;;5035522;28;20380;-81
2023/06/02 09:27:19;;;;;;;15.88;8.27;;;;;;;;;;5036453;28;20098;-81
2023/06/02 09:29:46;;;;;;;12.90;8.80;;;;;;;;;;5035163;28;20032;-82
2023/06/02 09:32:15;;;;;;;11.13;7.80;;;615.20;2432.00;;;;;;5035072;28;20037;-80
2023/06/02 09:34:41;;;;;;;19.98;13.57;;;615.10;2432.00;;;;;;5036338;28;20029;-81
2023/06/02 09:37:12;;;;;;;11.93;9.43;;;615.00;2432.00;;;;;;5034752;28;20061;-82
2023/06/02 09:39:42;;;;;;;13.38;7.95;;;615.20;2432.00;;;;;;5036418;28;20032;-82
2023/06/02 09:42:08;;;;;;;12.35;7.70;;;614.80;2432.00;;;;;;5036233;28;20030;-80
2023/06/02 09:44:34;;;;;;;11.25;8.18;;;615.10;2432.00;;;;;;5034768;28;20033;-82
2023/06/02 09:47:02;;;;;;;9.27;7.78;;;615.20;2432.00;;;;;;5036077;28;20112;-82
2023/06/02 09:49:48;;;;;;;10.35;7.00;;;640.00;2432.00;;;;;;5036168;28;20025;-81
2023/06/02 09:52:16;;;;;;;12.38;8.15;;;640.10;2432.00;;;;;;5034236;28;20045;-81
2023/06/02 09:54:46;;;;;;;11.75;7.93;;;640.20;2432.00;;;;;;5034696;28;20037;-80
2023/06/02 09:57:13;;;;;;;9.52;7.00;;;640.60;2432.00;;;;;;5034351;28;20022;-83
2023/06/02 09:59:39;;;;;;;11.57;8.43;;;640.60;2432.00;;;;;;5035293;28;20026;-80
2023/06/02 10:02:09;;;;;;;11.85;7.63;;;640.80;2432.00;;;;;;5036095;28;20041;-83
2023/06/02 10:04:35;;;;;;;11.57;7.38;;;640.80;2432.00;;;;;;5033890;28;20049;-80
2023/06/02 10:07:33;;;;;;;10.32;8.10;;;;;;;;;;5035809;28;20025;-80
2023/06/02 10:09:59;;;;;;;9.55;7.20;;;;;;;;;;5025197;28;20025;-80
2023/06/02 10:12:25;;;;;;;8.07;7.22;;;;;;;;;;5033939;28;20120;-80
2023/06/02 10:14:51;;;;;;;7.78;6.55;;;;;;;;;;5035375;28;20462;-79
2023/06/02 10:17:27;;;;;;;11.25;7.43;;;;;;;;;;5034265;28;20071;-81
2023/06/02 10:20:10;;;;;;;14.07;6.90;;;;;;;;;;5034013;28;20017;-80
2023/06/02 10:22:58;;;;;;;9.75;6.38;;;;;;;;;;5035342;28;20021;-82
2023/06/02 10:25:31;;;;;;;10.80;8.13;;;;;;;;;;5045768;28;20041;-81
2023/06/02 10:27:57;;;;;;;13.93;8.52;;;;;;;;;;5053613;28;20380;-81
2023/06/02 10:30:24;;;;;;;10.38;7.03;;;;;;;;;;5054745;28;20040;-81
2023/06/02 10:32:51;;;;;;;9.90;7.13;;;;;;;;;;5053474;28;20473;-77
2023/06/02 10:35:18;;;;;;;11.25;8.45;;;;;;;;;;5053438;28;20025;-79
2023/06/02 10:37:45;;;;;;;10.75;7.00;;;;;;;;;;5052996;28;20017;-79
2023/06/02 10:40:11;;;;;;;7.53;6.00;;;;;;;;;;5054868;28;20040;-80
2023/06/02 10:42:38;;;;;;;12.15;7.63;;;;;;;;;;5053574;28;20021;-80
2023/06/02 10:45:27;;;;;;;8.18;6.20;;;;;;;;;;5053664;28;20070;-80
2023/06/02 10:47:53;;;;;;;11.00;6.82;;;;;;;;;;5053249;28;20052;-80
2023/06/02 10:50:24;;;;;;;8.88;7.20;;;;;;;;;;5050544;28;20162;-79
2023/06/02 10:53:00;;;;;;;8.13;5.78;;;;;;;;;;5034855;28;20104;-80
2023/06/02 10:55:35;;;;;;;10.05;5.93;;;;;;;;;;5033370;28;20029;-81
2023/06/02 10:58:05;;;;;;;9.82;6.20;;;;;;;;;;5033638;28;20032;-80
2023/06/02 11:00:40;;;;;;;10.10;6.90;;;;;;;;;;5033284;28;20029;-81
2023/06/02 11:03:10;;;;;;;11.85;7.22;;;;;;;;;;5034975;28;20018;-81
2023/06/02 11:05:36;;;;;;;15.68;6.18;;;;;;;;;;5033293;28;20051;-80
2023/06/02 11:08:11;;;;;;;17.02;9.68;;;;;;;;;;5033186;28;20416;-80
2023/06/02 11:10:41;;;;;;;8.70;6.47;;;;;;;;;;5033216;28;20057;-80
2023/06/02 11:13:07;;;;;;;10.20;6.97;;;;;;;;;;5033374;28;20022;-81
2023/06/02 11:15:33;;;;;;;9.00;6.97;;;;;;;;;;5033148;28;20108;-82
2023/06/02 11:18:01;;;;;;;11.23;6.43;;;;;;;;;;5033536;28;20165;-82
2023/06/02 11:20:37;;;;;;;8.77;6.75;;;;;;;;;;5033515;28;20022;-81
2023/06/02 11:23:04;;;;;;;9.63;6.43;;;;;;;;;;5033143;28;20048;-82
2023/06/02 11:25:30;;;;;;;10.27;6.43;;;;;;;;;;5033432;28;20086;-81
2023/06/02 11:27:56;;;;;;;11.93;5.90;;;;;;;;;;5043949;28;20020;-81
2023/06/02 11:30:23;;;;;;;12.85;6.50;;;;;;;;;;5058500;28;20026;-81
2023/06/02 11:32:50;;;;;;;12.73;6.63;;;;;;;;;;5042042;28;20026;-82
2023/06/02 11:35:18;;;;;;;9.30;6.72;;;;;;;;;;5040638;28;20060;-82
2023/06/02 11:37:59;;;;;;;12.18;6.93;;;;;;;;;;5037231;28;20067;-80
2023/06/02 11:40:28;;;;;;;12.75;7.07;;;;;;;;;;5034215;28;20033;-84
2023/06/02 11:42:54;;;;;;;12.48;7.10;;;;;;;;;;5032694;28;20029;-83
2023/06/02 11:45:21;;;;;;;14.93;8.25;;;;;;;;;;5032925;28;20053;-84
2023/06/02 11:47:47;;;;;;;15.90;9.38;;;;;;;;;;5032559;28;20033;-82
2023/06/02 11:50:20;;;;;;;14.65;9.15;;;;;;;;;;5032467;28;20036;-81
2023/06/02 11:52:46;;;;;;;17.08;8.60;;;;;;;;;;5032711;28;20028;-84
2023/06/02 11:55:13;;;;;;;10.05;7.47;;;;;;;;;;5034206;28;20025;-85
2023/06/02 11:57:40;;;;;;;10.75;6.88;;;615.00;2432.00;;;;;;5033805;28;20028;-84
2023/06/02 12:00:09;;;;;;;10.05;6.90;;;614.80;2432.00;;;;;;5033039;28;20028;-85
2023/06/02 12:02:39;;;;;;;13.27;8.68;;;614.60;2432.00;;;;;;5032812;28;20420;-82
2023/06/02 12:05:09;;;;;;;10.73;6.68;;;589.60;2432.00;;;;;;5032295;28;20089;-82
2023/06/02 12:07:36;;;;;;;10.35;6.68;;;589.40;2432.00;;;;;;5033372;28;20033;-82
2023/06/02 12:10:03;;;;;;;10.98;6.50;;;589.40;2432.00;;;;;;5032452;28;20072;-81
2023/06/02 12:12:31;;;;;;;11.52;6.45;;;589.20;2432.00;;;;;;5032520;28;20466;-81
2023/06/02 12:14:57;;;;;;;9.70;6.40;;;589.10;2432.00;;;;;;5033740;28;20025;-82
2023/06/02 12:17:22;;;;;;;10.52;7.50;;;589.20;2432.00;;;;;;5032281;28;20095;-82
2023/06/02 12:19:58;;;;;;;11.18;7.80;;;589.30;2432.00;;;;;;5032526;28;20022;-81
2023/06/02 12:22:24;;;;;;;8.77;6.68;;;589.20;2432.00;;;;;;5032459;28;20079;-84
2023/06/02 12:24:49;;;;;;;11.15;7.90;;;589.10;2432.00;;;;;;5032230;28;20029;-82
2023/06/02 12:27:24;;;;;;;13.70;10.00;;;589.00;2432.00;;;;;;5033040;28;20030;-82
2023/06/02 12:29:50;;;;;;;13.27;9.35;;;588.80;2432.00;;;;;;5046736;28;20029;-83
2023/06/02 12:32:26;;;;;;;11.07;8.00;;;564.10;2432.00;;;;;;5053358;28;20037;-81
2023/06/02 12:34:51;;;;;;;11.63;9.90;;;564.00;2432.00;;;;;;5052317;28;20036;-80
2023/06/02 12:37:18;;;;;;;9.65;8.23;;;563.80;2432.00;;;;;;5052095;28;20025;-80
2023/06/02 12:39:44;;;;;;;9.25;6.70;;;563.70;2432.00;;;;;;5052007;28;20029;-81
2023/06/02 12:42:13;;;;;;;9.57;7.53;;;588.90;2432.00;;;;;;5052161;28;20500;-80
2023/06/02 12:44:39;;;;;;;11.35;7.40;;;563.80;2432.00;;;;;;5052938;28;20032;-79
2023/06/02 12:47:06;;;;;;;11.63;8.52;;;563.60;2432.00;;;;;;5051710;28;20025;-80
2023/06/02 12:49:32;;;;;;;13.07;8.85;;;563.60;2432.00;;;;;;5052068;28;20037;-82
2023/06/02 12:51:58;;;;;;;13.80;8.63;;;563.60;2432.00;;;;;;5052073;28;20048;-80